createdAt,value
2022-12-15T00:02:19.486Z,95958.16
2022-12-15T00:05:07.572Z,95953.66
2022-12-15T00:07:53.474Z,95955.50
2022-12-15T00:10:38.867Z,95964.03
2022-12-15T00:13:31.346Z,95959.53
2022-12-15T00:16:16.939Z,95969.97
2022-12-15T00:19:01.900Z,95972.09
2022-12-15T00:21:47.216Z,95982.75
2022-12-15T00:24:32.171Z,95972.47
2022-12-15T00:27:17.037Z,95986.06
2022-12-15T00:30:02.476Z,95977.16
2022-12-15T00:32:50.098Z,95976.69
2022-12-15T00:35:35.455Z,95983.84
2022-12-15T00:38:27.927Z,95991.75
2022-12-15T00:40:59.155Z,96003.09
2022-12-15T00:43:29.712Z,96004.31
2022-12-15T00:46:15.385Z,95995.13
2022-12-15T00:48:44.560Z,96008.38
2022-12-15T00:51:11.765Z,96022.69
2022-12-15T00:53:56.935Z,96019.78
2022-12-15T00:56:42.590Z,96024.22
2022-12-15T00:59:27.967Z,96025.31
2022-12-15T01:02:13.318Z,96023.66
2022-12-15T01:04:58.537Z,96023.56
2022-12-15T01:07:43.845Z,96016.38
2022-12-15T01:10:34.784Z,96009.44
2022-12-15T01:13:19.892Z,96017.03
2022-12-15T01:16:04.759Z,96015.19
2022-12-15T01:18:52.129Z,96025.31
2022-12-15T01:21:24.629Z,96033.44
2022-12-15T01:23:52.286Z,96027.63
2022-12-15T01:26:19.122Z,96028.16
2022-12-15T01:28:45.671Z,96024.91
2022-12-15T01:31:12.383Z,96025.81
2022-12-15T01:33:43.664Z,96029.09
2022-12-15T01:36:11.041Z,96030.59
2022-12-15T01:38:37.671Z,96048.31
2022-12-15T01:41:09.374Z,96052.59
2022-12-15T01:43:38.029Z,96057.34
2022-12-15T01:46:34.153Z,96050.94
2022-12-15T01:49:15.757Z,96057.09
2022-12-15T01:51:50.366Z,96055.81
2022-12-15T01:54:26.262Z,96053.78
2022-12-15T01:56:56.753Z,96055.81
2022-12-15T01:59:30.208Z,96048.72
2022-12-15T02:01:57.013Z,96050.72
2022-12-15T02:04:24.468Z,96048.28
2022-12-15T02:06:53.010Z,96057.16
2022-12-15T02:09:23.527Z,96058.16
2022-12-15T02:12:25.542Z,96062.84
2022-12-15T02:14:54.954Z,96055.53
2022-12-15T02:17:39.833Z,96057.28
2022-12-15T02:20:18.060Z,96067.44
2022-12-15T02:22:56.933Z,96069.94
2022-12-15T02:25:51.163Z,96078.03
2022-12-15T02:28:31.782Z,96089.06
2022-12-15T02:31:28.063Z,96086.81
2022-12-15T02:34:03.909Z,96084.53
2022-12-15T02:36:38.642Z,96092.97
2022-12-15T02:39:06.072Z,96084.53
2022-12-15T02:41:35.374Z,96086.91
2022-12-15T02:44:09.856Z,96085.41
2022-12-15T02:47:13.232Z,96080.28
2022-12-15T02:49:54.918Z,96088.81
2022-12-15T02:52:40.002Z,96088.31
2022-12-15T02:55:24.799Z,96094.19
2022-12-15T02:57:58.309Z,96097.34
2022-12-15T03:00:24.797Z,96098.44
2022-12-15T03:02:54.705Z,96103.56
2022-12-15T03:05:22.988Z,96108.53
2022-12-15T03:07:54.278Z,96114.00
2022-12-15T03:10:24.205Z,96120.81
2022-12-15T03:12:51.384Z,96118.31
2022-12-15T03:15:18.775Z,96122.03
2022-12-15T03:17:45.330Z,96129.06
2022-12-15T03:20:12.043Z,96136.72
2022-12-15T03:22:38.586Z,96136.72
2022-12-15T03:25:08.009Z,96136.56
2022-12-15T03:27:35.565Z,96141.03
2022-12-15T03:30:02.041Z,96137.97
2022-12-15T03:32:31.754Z,96149.78
2022-12-15T03:34:58.204Z,96156.44
2022-12-15T03:37:24.728Z,96156.09
2022-12-15T03:39:51.172Z,96163.56
2022-12-15T03:42:37.593Z,96171.91
2022-12-15T03:45:04.629Z,96171.66
2022-12-15T03:47:32.066Z,96169.94
2022-12-15T03:49:58.529Z,96172.56
2022-12-15T03:52:25.484Z,96176.97
2022-12-15T03:54:51.941Z,96180.34
2022-12-15T03:57:20.725Z,96177.47
2022-12-15T03:59:47.169Z,96178.69
2022-12-15T04:02:13.839Z,96176.78
2022-12-15T04:04:40.501Z,96171.56
2022-12-15T04:07:06.939Z,96175.41
2022-12-15T04:09:33.391Z,96185.31
2022-12-15T04:11:59.804Z,96193.50
2022-12-15T04:14:26.250Z,96203.31
2022-12-15T04:16:58.076Z,96200.44
2022-12-15T04:19:43.293Z,96197.13
2022-12-15T04:22:14.940Z,96203.75
2022-12-15T04:25:02.770Z,96214.09
2022-12-15T04:27:47.740Z,96217.63
2022-12-15T04:30:33.034Z,96215.56
2022-12-15T04:33:19.139Z,96211.66
2022-12-15T04:36:04.866Z,96210.94
2022-12-15T04:38:52.235Z,96214.13
2022-12-15T04:41:39.663Z,96226.28
2022-12-15T04:44:24.871Z,96223.28
2022-12-15T04:47:12.164Z,96224.50
2022-12-15T04:49:57.171Z,96230.91
2022-12-15T04:52:42.493Z,96242.25
2022-12-15T04:55:27.805Z,96243.94
2022-12-15T04:58:12.587Z,96241.59
2022-12-15T05:00:57.395Z,96241.94
2022-12-15T05:03:42.790Z,96241.78
2022-12-15T05:06:27.581Z,96238.28
2022-12-15T05:09:15.119Z,96255.88
2022-12-15T05:11:59.852Z,96248.09
2022-12-15T05:14:44.774Z,96253.53
2022-12-15T05:17:38.293Z,96250.16
2022-12-15T05:20:26.856Z,96255.19
2022-12-15T05:23:13.840Z,96258.06
2022-12-15T05:25:58.529Z,96253.47
2022-12-15T05:28:43.364Z,96237.97
2022-12-15T05:31:28.703Z,96251.66
2022-12-15T05:34:02.618Z,96257.25
2022-12-15T05:36:34.274Z,96265.09
2022-12-15T05:39:03.968Z,96256.03
2022-12-15T05:41:30.514Z,96260.09
2022-12-15T05:43:56.992Z,96271.56
2022-12-15T05:46:23.558Z,96271.22
2022-12-15T05:48:50.072Z,96275.34
2022-12-15T05:51:16.533Z,96267.34
2022-12-15T05:53:42.993Z,96284.63
2022-12-15T05:56:12.307Z,96277.47
2022-12-15T05:58:44.756Z,96278.03
2022-12-15T06:01:14.937Z,96285.97
2022-12-15T06:03:42.644Z,96285.16
2022-12-15T06:06:10.600Z,96284.22
2022-12-15T06:08:39.135Z,96288.28
2022-12-15T06:11:06.703Z,96295.88
2022-12-15T06:13:37.155Z,96295.03
2022-12-15T06:16:10.086Z,96301.13
2022-12-15T06:18:41.145Z,96306.72
2022-12-15T06:21:10.594Z,96307.41
2022-12-15T06:23:37.118Z,96307.13
2022-12-15T06:26:12.605Z,96312.16
2022-12-15T06:28:41.879Z,96306.25
2022-12-15T06:31:10.142Z,96313.28
2022-12-15T06:33:36.858Z,96323.63
2022-12-15T06:36:07.868Z,96331.84
2022-12-15T06:38:35.182Z,96327.47
2022-12-15T06:41:03.472Z,96337.19
2022-12-15T06:43:31.627Z,96338.09
2022-12-15T06:45:58.396Z,96353.16
2022-12-15T06:48:25.019Z,96366.91
2022-12-15T06:50:54.638Z,96367.38
2022-12-15T06:53:22.944Z,96357.47
2022-12-15T06:55:50.233Z,96354.03
2022-12-15T06:58:17.916Z,96360.22
2022-12-15T07:00:46.445Z,96360.13
2022-12-15T07:03:16.209Z,96366.09
2022-12-15T07:05:44.246Z,96365.34
2022-12-15T07:08:12.195Z,96370.91
2022-12-15T07:10:40.406Z,96370.91
2022-12-15T07:13:12.503Z,96375.34
2022-12-15T07:15:40.356Z,96371.88
2022-12-15T07:18:10.379Z,96374.81
2022-12-15T07:20:36.839Z,96366.38
2022-12-15T07:23:09.507Z,96360.09
2022-12-15T07:25:36.801Z,96367.19
2022-12-15T07:28:03.583Z,96367.78
2022-12-15T07:30:35.122Z,96375.50
2022-12-15T07:33:07.674Z,96368.94
2022-12-15T07:35:34.132Z,96375.66
2022-12-15T07:38:00.561Z,96376.34
2022-12-15T07:40:27.166Z,96387.25
2022-12-15T07:42:53.654Z,96380.56
2022-12-15T07:45:20.322Z,96377.00
2022-12-15T07:47:53.476Z,96362.63
2022-12-15T07:50:22.201Z,96368.28
2022-12-15T07:52:50.691Z,96374.91
2022-12-15T07:55:17.150Z,96371.31
2022-12-15T07:57:45.846Z,96382.44
2022-12-15T08:00:14.794Z,96394.22
2022-12-15T08:02:44.251Z,96388.44
2022-12-15T08:05:10.897Z,96380.88
2022-12-15T08:07:37.451Z,96394.00
2022-12-15T08:10:04.268Z,96394.84
2022-12-15T08:12:31.377Z,96382.91
2022-12-15T08:14:57.820Z,96385.13
2022-12-15T08:17:24.297Z,96381.19
2022-12-15T08:19:53.466Z,96379.69
2022-12-15T08:22:23.621Z,96382.88
2022-12-15T08:24:50.140Z,96383.84
2022-12-15T08:27:16.622Z,96383.03
2022-12-15T08:29:51.845Z,96375.31
2022-12-15T08:32:18.577Z,96376.91
2022-12-15T08:34:47.273Z,96382.47
2022-12-15T08:37:14.215Z,96392.72
2022-12-15T08:39:40.723Z,96393.34
2022-12-15T08:42:07.168Z,96404.22
2022-12-15T08:44:33.932Z,96403.56
2022-12-15T08:47:00.490Z,96403.22
2022-12-15T08:49:26.963Z,96403.75
2022-12-15T08:51:53.435Z,96416.38
2022-12-15T08:54:21.176Z,96411.69
2022-12-15T08:56:48.041Z,96408.06
2022-12-15T08:59:14.506Z,96409.75
2022-12-15T09:01:41.674Z,96430.81
2022-12-15T09:04:08.392Z,96438.50
2022-12-15T09:06:36.810Z,96426.03
2022-12-15T09:09:08.518Z,96429.13
2022-12-15T09:11:37.701Z,96431.91
2022-12-15T09:14:04.200Z,96427.00
2022-12-15T09:16:31.043Z,96438.19
2022-12-15T09:18:59.263Z,96438.97
2022-12-15T09:21:29.384Z,96439.31
2022-12-15T09:24:01.820Z,96442.34
2022-12-15T09:26:33.714Z,96444.63
2022-12-15T09:29:01.867Z,96436.06
2022-12-15T09:31:33.163Z,96445.28
2022-12-15T09:34:00.970Z,96445.16
2022-12-15T09:36:32.511Z,96441.66
2022-12-15T09:39:01.905Z,96439.91
2022-12-15T09:41:32.259Z,96438.22
2022-12-15T09:44:12.266Z,96435.41
2022-12-15T09:46:50.705Z,96425.66
2022-12-15T09:49:41.945Z,96417.66
2022-12-15T09:52:16.802Z,96418.50
2022-12-15T09:54:44.922Z,96418.09
2022-12-15T09:57:20.638Z,96411.44
2022-12-15T10:00:11.269Z,96408.75
2022-12-15T10:02:59.397Z,96405.72
2022-12-15T10:06:07.170Z,96409.72
2022-12-15T10:08:31.570Z,96395.91
2022-12-15T10:11:05.714Z,96395.22
2022-12-15T10:13:38.114Z,96391.22
2022-12-15T10:16:16.448Z,96387.44
2022-12-15T10:18:56.042Z,96397.16
2022-12-15T10:21:28.094Z,96388.66
2022-12-15T10:24:08.030Z,96390.19
2022-12-15T10:26:35.440Z,96389.53
2022-12-15T10:29:20.661Z,96376.94
2022-12-15T10:31:58.085Z,96380.03
2022-12-15T10:34:37.922Z,96379.34
2022-12-15T10:37:05.343Z,96372.63
2022-12-15T10:39:41.050Z,96377.44
2022-12-15T10:42:16.828Z,96365.22
2022-12-15T10:44:50.544Z,96372.47
2022-12-15T10:47:32.476Z,96365.97
2022-12-15T10:50:24.990Z,96368.00
2022-12-15T10:52:51.892Z,96363.31
2022-12-15T10:55:41.541Z,96358.72
2022-12-15T10:58:20.668Z,96361.91
2022-12-15T11:00:50.917Z,96367.78
2022-12-15T11:03:26.789Z,96354.81
2022-12-15T11:05:55.949Z,96349.69
2022-12-15T11:08:24.446Z,96349.13
2022-12-15T11:11:15.720Z,96355.25
2022-12-15T11:14:02.607Z,96360.66
2022-12-15T11:16:31.466Z,96360.84
2022-12-15T11:19:26.190Z,96358.94
2022-12-15T11:21:59.916Z,96348.94
2022-12-15T11:24:49.530Z,96344.56
2022-12-15T11:27:28.484Z,96347.56
2022-12-15T11:30:02.949Z,96350.97
2022-12-15T11:32:34.056Z,96339.03
2022-12-15T11:35:00.996Z,96341.84
2022-12-15T11:37:34.530Z,96330.53
2022-12-15T11:40:41.049Z,96319.75
2022-12-15T11:43:16.921Z,96318.84
2022-12-15T11:46:17.383Z,96308.06
2022-12-15T11:49:33.843Z,96303.66
2022-12-15T11:52:24.091Z,96311.22
2022-12-15T11:55:07.901Z,96308.06
2022-12-15T11:57:53.058Z,96303.06
2022-12-15T12:00:21.429Z,96303.25
2022-12-15T12:03:06.712Z,96304.94
2022-12-15T12:05:42.015Z,96297.44
2022-12-15T12:08:38.977Z,96306.91
2022-12-15T12:11:23.784Z,96307.28
2022-12-15T12:14:23.146Z,96299.84
2022-12-15T12:17:17.367Z,96297.75
2022-12-15T12:19:53.822Z,96300.19
2022-12-15T12:22:39.794Z,96291.41
2022-12-15T12:25:18.393Z,96298.44
2022-12-15T12:28:00.196Z,96298.00
2022-12-15T12:30:33.329Z,96298.75
2022-12-15T12:33:16.231Z,96299.19
2022-12-15T12:35:47.315Z,96293.38
2022-12-15T12:38:20.211Z,96297.13
2022-12-15T12:41:10.707Z,96289.00
2022-12-15T12:43:50.957Z,96285.91
2022-12-15T12:46:32.894Z,96281.69
2022-12-15T12:49:22.831Z,96266.44
2022-12-15T12:51:54.811Z,96271.00
2022-12-15T12:54:36.489Z,96256.81
2022-12-15T12:57:28.876Z,96243.66
2022-12-15T13:00:12.937Z,96245.16
2022-12-15T13:02:47.024Z,96235.59
2022-12-15T13:05:35.509Z,96223.50
2022-12-15T13:08:05.126Z,96218.44
2022-12-15T13:10:37.197Z,96219.09
2022-12-15T13:13:19.037Z,96226.31
2022-12-15T13:15:51.010Z,96213.72
2022-12-15T13:18:19.617Z,96216.06
2022-12-15T13:20:48.904Z,96210.81
2022-12-15T13:23:37.052Z,96213.22
2022-12-15T13:26:03.775Z,96215.69
2022-12-15T13:28:36.081Z,96227.91
2022-12-15T13:31:19.092Z,96225.41
2022-12-15T13:33:58.502Z,96232.59
2022-12-15T13:36:37.896Z,96239.34
2022-12-15T13:39:06.010Z,96236.75
2022-12-15T13:41:33.286Z,96229.47
2022-12-15T13:44:00.501Z,96233.00
2022-12-15T13:46:32.772Z,96222.69
2022-12-15T13:49:14.165Z,96218.63
2022-12-15T13:51:45.892Z,96212.41
2022-12-15T13:54:25.025Z,96215.19
2022-12-15T13:56:55.641Z,96216.22
2022-12-15T13:59:30.913Z,96220.75
2022-12-15T14:01:59.780Z,96222.50
2022-12-15T14:04:26.672Z,96218.50
2022-12-15T14:07:02.159Z,96223.81
2022-12-15T14:09:34.119Z,96220.81
2022-12-15T14:12:05.171Z,96218.66
2022-12-15T14:14:35.149Z,96217.34
2022-12-15T14:17:06.539Z,96219.38
2022-12-15T14:19:39.253Z,96220.59
2022-12-15T14:22:29.660Z,96228.72
2022-12-15T14:25:14.471Z,96225.31
2022-12-15T14:27:41.011Z,96225.31
2022-12-15T14:30:14.601Z,96211.72
2022-12-15T14:32:42.090Z,96206.78
2022-12-15T14:35:23.472Z,96207.19
2022-12-15T14:37:50.372Z,96205.44
2022-12-15T14:40:21.379Z,96210.72
2022-12-15T14:42:54.806Z,96203.66
2022-12-15T14:45:26.377Z,96191.78
2022-12-15T14:48:39.354Z,96195.72
2022-12-15T14:50:53.518Z,96193.25
2022-12-15T14:53:23.456Z,96184.38
2022-12-15T14:55:50.141Z,96174.41
2022-12-15T14:58:29.600Z,96172.00
2022-12-15T15:00:57.187Z,96166.28
2022-12-15T15:03:37.094Z,96156.34
2022-12-15T15:06:17.598Z,96152.44
2022-12-15T15:08:53.782Z,96152.56
2022-12-15T15:11:29.977Z,96148.63
2022-12-15T15:14:00.255Z,96151.22
2022-12-15T15:16:27.474Z,96158.03
2022-12-15T15:18:56.283Z,96170.66
2022-12-15T15:21:34.031Z,96166.34
2022-12-15T15:24:03.688Z,96173.44
2022-12-15T15:26:31.307Z,96174.13
2022-12-15T15:28:58.455Z,96183.16
2022-12-15T15:31:24.994Z,96184.41
2022-12-15T15:33:52.740Z,96187.53
2022-12-15T15:36:21.499Z,96192.84
2022-12-15T15:38:48.054Z,96186.06
2022-12-15T15:41:16.801Z,96176.28
2022-12-15T15:43:43.693Z,96164.03
2022-12-15T15:46:18.028Z,96157.81
2022-12-15T15:48:53.146Z,96157.22
2022-12-15T15:51:20.616Z,96152.41
2022-12-15T15:53:47.738Z,96148.28
2022-12-15T15:56:18.597Z,96150.28
2022-12-15T15:58:45.272Z,96143.66
2022-12-15T16:01:13.542Z,96134.41
2022-12-15T16:03:41.335Z,96128.06
2022-12-15T16:06:17.398Z,96130.91
2022-12-15T16:08:50.183Z,96123.94
2022-12-15T16:11:20.074Z,96123.59
2022-12-15T16:13:46.799Z,96129.00
2022-12-15T16:16:19.496Z,96130.22
2022-12-15T16:18:46.271Z,96138.28
2022-12-15T16:21:14.538Z,96133.31
2022-12-15T16:23:44.920Z,96128.34
2022-12-15T16:26:27.122Z,96118.38
2022-12-15T16:28:56.264Z,96118.88
2022-12-15T16:31:41.742Z,96127.72
2022-12-15T16:34:09.087Z,96121.03
2022-12-15T16:36:35.943Z,96116.31
2022-12-15T16:39:04.053Z,96115.97
2022-12-15T16:41:30.591Z,96108.94
2022-12-15T16:43:57.127Z,96115.22
2022-12-15T16:46:26.045Z,96099.34
2022-12-15T16:48:52.663Z,96099.28
2022-12-15T16:51:37.279Z,96101.03
2022-12-15T16:54:04.248Z,96097.09
2022-12-15T16:56:30.713Z,96106.78
2022-12-15T16:59:15.610Z,96105.91
2022-12-15T17:01:44.543Z,96110.50
2022-12-15T17:04:11.752Z,96114.56
2022-12-15T17:06:38.782Z,96109.34
2022-12-15T17:09:07.189Z,96097.22
2022-12-15T17:11:33.756Z,96090.88
2022-12-15T17:14:00.883Z,96082.91
2022-12-15T17:16:28.486Z,96085.53
2022-12-15T17:18:55.011Z,96089.41
2022-12-15T17:21:28.223Z,96086.94
2022-12-15T17:24:01.893Z,96088.31
2022-12-15T17:26:30.932Z,96067.75
2022-12-15T17:29:02.088Z,96071.25
2022-12-15T17:31:35.681Z,96066.66
2022-12-15T17:34:22.694Z,96069.22
2022-12-15T17:36:49.327Z,96060.06
2022-12-15T17:39:18.206Z,96046.47
2022-12-15T17:42:04.335Z,96044.72
2022-12-15T17:44:38.301Z,96044.16
2022-12-15T17:47:07.727Z,96049.41
2022-12-15T17:49:37.732Z,96053.34
2022-12-15T17:52:24.329Z,96052.25
2022-12-15T17:54:54.321Z,96054.47
2022-12-15T17:57:20.927Z,96055.53
2022-12-15T17:59:50.896Z,96055.94
2022-12-15T18:02:19.967Z,96055.38
2022-12-15T18:04:49.959Z,96073.66
2022-12-15T18:07:22.624Z,96068.22
2022-12-15T18:09:53.142Z,96056.50
2022-12-15T18:12:25.713Z,96060.53
2022-12-15T18:14:53.046Z,96056.28
2022-12-15T18:17:20.101Z,96048.78
2022-12-15T18:19:48.934Z,96051.50
2022-12-15T18:22:21.113Z,96049.03
2022-12-15T18:24:48.934Z,96052.16
2022-12-15T18:27:26.654Z,96051.97
2022-12-15T18:29:53.801Z,96051.72
2022-12-15T18:32:23.309Z,96042.53
2022-12-15T18:34:50.514Z,96037.31
2022-12-15T18:37:19.084Z,96036.91
2022-12-15T18:39:46.408Z,96038.38
2022-12-15T18:42:18.039Z,96045.94
2022-12-15T18:44:47.981Z,96051.97
2022-12-15T18:47:19.961Z,96051.81
2022-12-15T18:49:46.643Z,96043.16
2022-12-15T18:52:20.067Z,96039.22
2022-12-15T18:54:48.556Z,96031.69
2022-12-15T18:57:32.146Z,96022.13
2022-12-15T19:00:08.033Z,96018.81
2022-12-15T19:02:34.664Z,96011.47
2022-12-15T19:05:01.528Z,96010.00
2022-12-15T19:07:28.216Z,96001.63
2022-12-15T19:09:54.896Z,95997.59
2022-12-15T19:12:21.559Z,96001.31
2022-12-15T19:14:55.025Z,95995.38
2022-12-15T19:17:42.571Z,95987.78
2022-12-15T19:20:38.330Z,95976.22
2022-12-15T19:23:06.730Z,95983.84
2022-12-15T19:25:34.253Z,95966.47
2022-12-15T19:28:01.495Z,95958.78
2022-12-15T19:30:33.194Z,95957.84
2022-12-15T19:33:01.252Z,95950.84
2022-12-15T19:35:28.270Z,95959.75
2022-12-15T19:37:58.433Z,95961.50
2022-12-15T19:40:27.895Z,95968.31
2022-12-15T19:42:55.480Z,95961.22
2022-12-15T19:45:31.445Z,95954.06
2022-12-15T19:47:58.555Z,95953.34
2022-12-15T19:50:30.996Z,95956.09
2022-12-15T19:53:00.965Z,95956.44
2022-12-15T19:55:32.732Z,95948.38
2022-12-15T19:58:00.837Z,95940.28
2022-12-15T20:00:27.495Z,95946.00
2022-12-15T20:02:55.679Z,95945.84
2022-12-15T20:05:24.421Z,95955.13
2022-12-15T20:07:54.947Z,95949.38
2022-12-15T20:10:31.911Z,95942.13
2022-12-15T20:13:00.467Z,95932.41
2022-12-15T20:15:27.281Z,95926.31
2022-12-15T20:17:56.653Z,95926.16
2022-12-15T20:20:25.635Z,95921.38
2022-12-15T20:22:55.653Z,95921.91
2022-12-15T20:25:35.278Z,95916.78
2022-12-15T20:28:02.712Z,95915.31
2022-12-15T20:30:35.148Z,95900.00
2022-12-15T20:33:03.848Z,95897.56
2022-12-15T20:35:33.172Z,95899.31
2022-12-15T20:38:12.260Z,95896.41
2022-12-15T20:40:41.065Z,95884.91
2022-12-15T20:43:17.202Z,95883.03
2022-12-15T20:45:46.429Z,95872.88
2022-12-15T20:48:15.150Z,95874.44
2022-12-15T20:50:50.674Z,95871.84
2022-12-15T20:53:21.339Z,95871.94
2022-12-15T20:55:49.950Z,95871.75
2022-12-15T20:58:17.662Z,95863.94
2022-12-15T21:00:48.533Z,95856.94
2022-12-15T21:03:24.619Z,95859.63
2022-12-15T21:05:56.968Z,95856.91
2022-12-15T21:08:29.754Z,95858.56
2022-12-15T21:11:13.473Z,95848.06
2022-12-15T21:13:40.046Z,95850.31
2022-12-15T21:16:07.126Z,95850.03
2022-12-15T21:19:17.890Z,95845.63
2022-12-15T21:21:27.007Z,95839.31
2022-12-15T21:23:53.721Z,95830.78
2022-12-15T21:26:24.354Z,95835.63
2022-12-15T21:28:55.592Z,95828.56
2022-12-15T21:31:22.670Z,95839.44
2022-12-15T21:33:49.282Z,95843.31
2022-12-15T21:36:18.467Z,95831.19
2022-12-15T21:38:50.874Z,95824.31
2022-12-15T21:41:21.116Z,95825.66
2022-12-15T21:43:50.924Z,95813.53
2022-12-15T21:46:27.554Z,95820.63
2022-12-15T21:49:14.241Z,95823.09
2022-12-15T21:51:43.836Z,95817.63
2022-12-15T21:54:19.646Z,95818.88
2022-12-15T21:56:47.605Z,95824.59
2022-12-15T21:59:21.445Z,95828.81
2022-12-15T22:01:49.133Z,95827.63
2022-12-15T22:04:19.531Z,95832.34
2022-12-15T22:06:50.449Z,95828.88
2022-12-15T22:09:18.548Z,95831.59
2022-12-15T22:11:50.919Z,95834.69
2022-12-15T22:14:34.125Z,95829.63
2022-12-15T22:17:11.604Z,95834.31
2022-12-15T22:19:38.095Z,95838.03
2022-12-15T22:22:04.831Z,95832.63
2022-12-15T22:24:31.273Z,95826.94
2022-12-15T22:26:58.395Z,95825.59
2022-12-15T22:29:25.327Z,95837.22
2022-12-15T22:31:52.028Z,95827.84
2022-12-15T22:34:21.520Z,95827.09
2022-12-15T22:36:49.244Z,95824.63
2022-12-15T22:39:18.728Z,95815.78
2022-12-15T22:41:47.960Z,95810.22
2022-12-15T22:44:26.829Z,95808.75
2022-12-15T22:46:55.764Z,95806.75
2022-12-15T22:49:28.688Z,95795.47
2022-12-15T22:51:55.246Z,95783.38
2022-12-15T22:54:25.561Z,95781.94
2022-12-15T22:56:59.059Z,95766.63
2022-12-15T22:59:32.485Z,95764.53
2022-12-15T23:02:02.071Z,95752.41
2022-12-15T23:04:30.374Z,95748.31
2022-12-15T23:07:01.239Z,95744.81
2022-12-15T23:09:27.883Z,95735.84
2022-12-15T23:11:54.998Z,95747.78
2022-12-15T23:14:41.534Z,95743.56
2022-12-15T23:17:08.327Z,95739.75
2022-12-15T23:19:37.090Z,95739.16
2022-12-15T23:22:03.585Z,95731.00
2022-12-15T23:24:31.274Z,95730.72
2022-12-15T23:26:57.740Z,95726.16
2022-12-15T23:29:24.854Z,95721.16
2022-12-15T23:31:51.385Z,95724.03
2022-12-15T23:34:18.588Z,95724.84
2022-12-15T23:36:45.078Z,95716.63
2022-12-15T23:39:14.159Z,95719.91
2022-12-15T23:41:40.577Z,95723.63
2022-12-15T23:44:07.292Z,95714.97
2022-12-15T23:46:34.036Z,95723.72
2022-12-15T23:49:02.289Z,95725.91
2022-12-15T23:51:31.199Z,95723.94
2022-12-15T23:53:57.681Z,95722.78
2022-12-15T23:56:25.137Z,95730.41
2022-12-15T23:58:57.202Z,95717.63
